sensor_id;sensor_type;location;lat;lon;timestamp;P1;durP1;ratioP1;P2;durP2;ratioP2
3767;SDS011;1899;49.966;7.106;2023-07-02T00:01:05;4.23;;;1.80;;
3767;SDS011;1899;49.966;7.106;2023-07-02T00:03:31;3.83;;;2.40;;
3767;SDS011;1899;49.966;7.106;2023-07-02T00:05:56;5.03;;;2.57;;
3767;SDS011;1899;49.966;7.106;2023-07-02T00:08:22;5.20;;;2.70;;
3767;SDS011;1899;49.966;7.106;2023-07-02T00:10:47;5.33;;;2.60;;
3767;SDS011;1899;49.966;7.106;2023-07-02T00:13:13;3.80;;;2.67;;
3767;SDS011;1899;49.966;7.106;2023-07-02T00:15:38;7.77;;;2.97;;
3767;SDS011;1899;49.966;7.106;2023-07-02T00:18:04;4.57;;;2.60;;
3767;SDS011;1899;49.966;7.106;2023-07-02T00:20:29;5.47;;;2.63;;
3767;SDS011;1899;49.966;7.106;2023-07-02T00:22:55;9.03;;;3.60;;
3767;SDS011;1899;49.966;7.106;2023-07-02T00:25:21;3.73;;;3.13;;
3767;SDS011;1899;49.966;7.106;2023-07-02T00:27:46;5.90;;;3.60;;
3767;SDS011;1899;49.966;7.106;2023-07-02T00:30:12;4.90;;;2.90;;
3767;SDS011;1899;49.966;7.106;2023-07-02T00:32:37;5.43;;;3.37;;
3767;SDS011;1899;49.966;7.106;2023-07-02T00:35:02;6.40;;;4.10;;
3767;SDS011;1899;49.966;7.106;2023-07-02T00:37:28;9.10;;;3.60;;
3767;SDS011;1899;49.966;7.106;2023-07-02T00:39:53;8.13;;;3.30;;
3767;SDS011;1899;49.966;7.106;2023-07-02T00:42:18;6.97;;;3.57;;
3767;SDS011;1899;49.966;7.106;2023-07-02T00:44:45;7.07;;;3.30;;
3767;SDS011;1899;49.966;7.106;2023-07-02T00:47:11;9.23;;;4.37;;
3767;SDS011;1899;49.966;7.106;2023-07-02T00:49:36;6.27;;;3.77;;
3767;SDS011;1899;49.966;7.106;2023-07-02T00:52:02;6.20;;;4.10;;
3767;SDS011;1899;49.966;7.106;2023-07-02T00:54:27;7.00;;;4.07;;
3767;SDS011;1899;49.966;7.106;2023-07-02T00:56:53;8.47;;;4.73;;
3767;SDS011;1899;49.966;7.106;2023-07-02T00:59:18;6.53;;;4.63;;
3767;SDS011;1899;49.966;7.106;2023-07-02T01:01:43;7.00;;;4.00;;
3767;SDS011;1899;49.966;7.106;2023-07-02T01:04:14;8.90;;;4.33;;
3767;SDS011;1899;49.966;7.106;2023-07-02T01:06:41;13.23;;;4.50;;
3767;SDS011;1899;49.966;7.106;2023-07-02T01:09:07;7.60;;;4.37;;
3767;SDS011;1899;49.966;7.106;2023-07-02T01:14:04;11.83;;;4.80;;
3767;SDS011;1899;49.966;7.106;2023-07-02T01:16:30;10.90;;;4.87;;
3767;SDS011;1899;49.966;7.106;2023-07-02T01:18:58;6.57;;;5.00;;
3767;SDS011;1899;49.966;7.106;2023-07-02T01:21:23;7.80;;;4.37;;
3767;SDS011;1899;49.966;7.106;2023-07-02T01:23:49;8.63;;;4.23;;
3767;SDS011;1899;49.966;7.106;2023-07-02T01:26:14;12.03;;;4.57;;
3767;SDS011;1899;49.966;7.106;2023-07-02T01:28:41;7.00;;;4.83;;
3767;SDS011;1899;49.966;7.106;2023-07-02T01:31:06;12.90;;;5.07;;
3767;SDS011;1899;49.966;7.106;2023-07-02T01:33:31;7.20;;;4.37;;
3767;SDS011;1899;49.966;7.106;2023-07-02T01:35:56;9.00;;;5.40;;
3767;SDS011;1899;49.966;7.106;2023-07-02T01:38:22;6.83;;;4.30;;
3767;SDS011;1899;49.966;7.106;2023-07-02T01:40:47;7.47;;;4.80;;
3767;SDS011;1899;49.966;7.106;2023-07-02T01:43:12;8.90;;;4.60;;
3767;SDS011;1899;49.966;7.106;2023-07-02T01:45:38;6.63;;;4.57;;
3767;SDS011;1899;49.966;7.106;2023-07-02T01:48:03;8.57;;;4.57;;
3767;SDS011;1899;49.966;7.106;2023-07-02T01:50:29;8.50;;;4.67;;
3767;SDS011;1899;49.966;7.106;2023-07-02T01:52:54;8.77;;;4.80;;
3767;SDS011;1899;49.966;7.106;2023-07-02T01:55:19;7.50;;;4.43;;
3767;SDS011;1899;49.966;7.106;2023-07-02T01:57:44;7.30;;;4.47;;
3767;SDS011;1899;49.966;7.106;2023-07-02T02:00:10;11.80;;;5.43;;
3767;SDS011;1899;49.966;7.106;2023-07-02T02:02:35;10.13;;;4.83;;
3767;SDS011;1899;49.966;7.106;2023-07-02T02:05:01;14.87;;;5.00;;
3767;SDS011;1899;49.966;7.106;2023-07-02T02:07:27;10.43;;;4.50;;
3767;SDS011;1899;49.966;7.106;2023-07-02T02:09:52;5.90;;;4.33;;
3767;SDS011;1899;49.966;7.106;2023-07-02T02:12:17;6.17;;;4.27;;
3767;SDS011;1899;49.966;7.106;2023-07-02T02:14:42;11.93;;;5.27;;
3767;SDS011;1899;49.966;7.106;2023-07-02T02:17:08;9.40;;;5.23;;
3767;SDS011;1899;49.966;7.106;2023-07-02T02:19:33;7.90;;;4.37;;
3767;SDS011;1899;49.966;7.106;2023-07-02T02:21:58;11.07;;;5.03;;
3767;SDS011;1899;49.966;7.106;2023-07-02T02:24:24;8.03;;;4.03;;
3767;SDS011;1899;49.966;7.106;2023-07-02T02:26:49;9.90;;;4.90;;
3767;SDS011;1899;49.966;7.106;2023-07-02T02:29:14;8.13;;;4.83;;
3767;SDS011;1899;49.966;7.106;2023-07-02T02:31:39;7.00;;;4.53;;
3767;SDS011;1899;49.966;7.106;2023-07-02T02:34:05;6.83;;;4.50;;
3767;SDS011;1899;49.966;7.106;2023-07-02T02:36:30;8.30;;;4.20;;
3767;SDS011;1899;49.966;7.106;2023-07-02T02:38:55;10.70;;;4.93;;
3767;SDS011;1899;49.966;7.106;2023-07-02T02:41:20;9.47;;;4.97;;
3767;SDS011;1899;49.966;7.106;2023-07-02T02:43:46;7.93;;;4.67;;
3767;SDS011;1899;49.966;7.106;2023-07-02T02:46:11;12.60;;;5.37;;
3767;SDS011;1899;49.966;7.106;2023-07-02T02:48:36;9.10;;;5.00;;
3767;SDS011;1899;49.966;7.106;2023-07-02T02:51:02;7.77;;;4.87;;
3767;SDS011;1899;49.966;7.106;2023-07-02T02:53:27;10.43;;;5.13;;
3767;SDS011;1899;49.966;7.106;2023-07-02T02:55:52;7.90;;;5.03;;
3767;SDS011;1899;49.966;7.106;2023-07-02T02:58:18;9.87;;;5.53;;
3767;SDS011;1899;49.966;7.106;2023-07-02T03:00:43;15.70;;;5.80;;
3767;SDS011;1899;49.966;7.106;2023-07-02T03:03:11;12.90;;;6.67;;
3767;SDS011;1899;49.966;7.106;2023-07-02T03:05:36;13.50;;;6.57;;
3767;SDS011;1899;49.966;7.106;2023-07-02T03:08:01;9.03;;;5.70;;
3767;SDS011;1899;49.966;7.106;2023-07-02T03:10:27;10.80;;;6.23;;
3767;SDS011;1899;49.966;7.106;2023-07-02T03:12:53;10.47;;;6.23;;
3767;SDS011;1899;49.966;7.106;2023-07-02T03:15:18;13.30;;;6.40;;
3767;SDS011;1899;49.966;7.106;2023-07-02T03:17:43;8.67;;;5.43;;
3767;SDS011;1899;49.966;7.106;2023-07-02T03:20:09;12.53;;;6.40;;
3767;SDS011;1899;49.966;7.106;2023-07-02T03:22:34;13.20;;;5.90;;
3767;SDS011;1899;49.966;7.106;2023-07-02T03:25:00;11.93;;;5.83;;
3767;SDS011;1899;49.966;7.106;2023-07-02T03:27:31;11.60;;;6.37;;
3767;SDS011;1899;49.966;7.106;2023-07-02T03:29:56;6.97;;;5.20;;
3767;SDS011;1899;49.966;7.106;2023-07-02T03:32:21;10.40;;;5.90;;
3767;SDS011;1899;49.966;7.106;2023-07-02T03:34:47;12.10;;;6.80;;
3767;SDS011;1899;49.966;7.106;2023-07-02T03:37:12;12.60;;;6.33;;
3767;SDS011;1899;49.966;7.106;2023-07-02T03:39:37;8.50;;;6.57;;
3767;SDS011;1899;49.966;7.106;2023-07-02T03:42:04;13.40;;;7.27;;
3767;SDS011;1899;49.966;7.106;2023-07-02T03:44:30;10.10;;;6.20;;
3767;SDS011;1899;49.966;7.106;2023-07-02T03:46:55;14.20;;;8.50;;
3767;SDS011;1899;49.966;7.106;2023-07-02T03:49:20;16.50;;;7.73;;
3767;SDS011;1899;49.966;7.106;2023-07-02T03:51:45;22.23;;;7.87;;
3767;SDS011;1899;49.966;7.106;2023-07-02T03:54:10;13.80;;;7.23;;
3767;SDS011;1899;49.966;7.106;2023-07-02T03:56:36;16.93;;;8.03;;
3767;SDS011;1899;49.966;7.106;2023-07-02T03:59:01;13.87;;;7.00;;
3767;SDS011;1899;49.966;7.106;2023-07-02T04:01:26;14.70;;;7.60;;
3767;SDS011;1899;49.966;7.106;2023-07-02T04:03:52;14.67;;;8.00;;
3767;SDS011;1899;49.966;7.106;2023-07-02T04:06:17;15.00;;;7.57;;
3767;SDS011;1899;49.966;7.106;2023-07-02T04:08:43;11.00;;;6.87;;
3767;SDS011;1899;49.966;7.106;2023-07-02T04:11:08;12.67;;;7.30;;
3767;SDS011;1899;49.966;7.106;2023-07-02T04:13:34;12.30;;;7.10;;
3767;SDS011;1899;49.966;7.106;2023-07-02T04:15:59;12.40;;;7.53;;
3767;SDS011;1899;49.966;7.106;2023-07-02T04:18:24;13.90;;;8.60;;
3767;SDS011;1899;49.966;7.106;2023-07-02T04:20:50;22.80;;;8.70;;
3767;SDS011;1899;49.966;7.106;2023-07-02T04:23:15;11.47;;;7.50;;
3767;SDS011;1899;49.966;7.106;2023-07-02T04:25:41;13.47;;;7.67;;
3767;SDS011;1899;49.966;7.106;2023-07-02T04:28:06;14.77;;;7.83;;
3767;SDS011;1899;49.966;7.106;2023-07-02T04:30:31;13.30;;;8.20;;
3767;SDS011;1899;49.966;7.106;2023-07-02T04:32:56;16.47;;;7.90;;
3767;SDS011;1899;49.966;7.106;2023-07-02T04:35:22;15.77;;;8.23;;
3767;SDS011;1899;49.966;7.106;2023-07-02T04:37:47;15.93;;;8.47;;
3767;SDS011;1899;49.966;7.106;2023-07-02T04:40:12;13.80;;;8.27;;
3767;SDS011;1899;49.966;7.106;2023-07-02T04:42:38;23.43;;;10.00;;
3767;SDS011;1899;49.966;7.106;2023-07-02T04:45:04;20.80;;;7.87;;
3767;SDS011;1899;49.966;7.106;2023-07-02T04:47:30;19.70;;;9.87;;
3767;SDS011;1899;49.966;7.106;2023-07-02T04:49:55;16.30;;;8.70;;
3767;SDS011;1899;49.966;7.106;2023-07-02T04:52:21;16.93;;;8.30;;
3767;SDS011;1899;49.966;7.106;2023-07-02T04:54:46;21.10;;;9.20;;
3767;SDS011;1899;49.966;7.106;2023-07-02T04:57:11;18.30;;;8.50;;
3767;SDS011;1899;49.966;7.106;2023-07-02T04:59:38;19.03;;;9.43;;
3767;SDS011;1899;49.966;7.106;2023-07-02T05:02:03;16.43;;;8.67;;
3767;SDS011;1899;49.966;7.106;2023-07-02T05:04:28;14.97;;;8.50;;
3767;SDS011;1899;49.966;7.106;2023-07-02T05:06:53;16.30;;;8.53;;
3767;SDS011;1899;49.966;7.106;2023-07-02T05:09:19;13.00;;;8.00;;
3767;SDS011;1899;49.966;7.106;2023-07-02T05:11:44;16.37;;;10.10;;
3767;SDS011;1899;49.966;7.106;2023-07-02T05:14:09;18.23;;;9.07;;
3767;SDS011;1899;49.966;7.106;2023-07-02T05:16:34;15.83;;;9.57;;
3767;SDS011;1899;49.966;7.106;2023-07-02T05:18:59;17.03;;;9.33;;
3767;SDS011;1899;49.966;7.106;2023-07-02T05:21:25;19.83;;;8.70;;
3767;SDS011;1899;49.966;7.106;2023-07-02T05:23:50;32.73;;;10.20;;
3767;SDS011;1899;49.966;7.106;2023-07-02T05:26:15;16.20;;;8.50;;
3767;SDS011;1899;49.966;7.106;2023-07-02T05:28:40;14.90;;;9.03;;
3767;SDS011;1899;49.966;7.106;2023-07-02T05:31:06;17.40;;;9.70;;
3767;SDS011;1899;49.966;7.106;2023-07-02T05:33:31;21.43;;;10.03;;
3767;SDS011;1899;49.966;7.106;2023-07-02T05:35:58;21.40;;;9.73;;
3767;SDS011;1899;49.966;7.106;2023-07-02T05:38:23;15.57;;;9.53;;
3767;SDS011;1899;49.966;7.106;2023-07-02T05:40:49;16.67;;;9.50;;
3767;SDS011;1899;49.966;7.106;2023-07-02T05:43:14;19.17;;;9.77;;
3767;SDS011;1899;49.966;7.106;2023-07-02T05:45:40;24.10;;;9.63;;
3767;SDS011;1899;49.966;7.106;2023-07-02T05:48:05;20.53;;;9.90;;
3767;SDS011;1899;49.966;7.106;2023-07-02T05:50:30;20.03;;;10.30;;
3767;SDS011;1899;49.966;7.106;2023-07-02T05:52:55;17.20;;;8.67;;
3767;SDS011;1899;49.966;7.106;2023-07-02T05:55:21;17.40;;;9.93;;
3767;SDS011;1899;49.966;7.106;2023-07-02T05:57:46;18.60;;;10.20;;
3767;SDS011;1899;49.966;7.106;2023-07-02T06:00:11;21.50;;;9.90;;
3767;SDS011;1899;49.966;7.106;2023-07-02T06:02:37;23.10;;;11.77;;
3767;SDS011;1899;49.966;7.106;2023-07-02T06:05:03;20.47;;;10.90;;
3767;SDS011;1899;49.966;7.106;2023-07-02T06:07:28;18.00;;;10.70;;
3767;SDS011;1899;49.966;7.106;2023-07-02T06:09:53;20.57;;;9.73;;
3767;SDS011;1899;49.966;7.106;2023-07-02T06:12:19;15.30;;;10.20;;
3767;SDS011;1899;49.966;7.106;2023-07-02T06:14:45;22.50;;;10.70;;
3767;SDS011;1899;49.966;7.106;2023-07-02T06:17:10;21.23;;;10.57;;
3767;SDS011;1899;49.966;7.106;2023-07-02T06:19:36;19.30;;;10.70;;
3767;SDS011;1899;49.966;7.106;2023-07-02T06:22:02;19.30;;;9.83;;
3767;SDS011;1899;49.966;7.106;2023-07-02T06:24:27;19.27;;;10.90;;
3767;SDS011;1899;49.966;7.106;2023-07-02T06:26:52;21.70;;;11.30;;
3767;SDS011;1899;49.966;7.106;2023-07-02T06:29:18;25.03;;;11.57;;
3767;SDS011;1899;49.966;7.106;2023-07-02T06:31:43;18.10;;;10.23;;
3767;SDS011;1899;49.966;7.106;2023-07-02T06:34:08;18.17;;;11.40;;
3767;SDS011;1899;49.966;7.106;2023-07-02T06:36:34;20.53;;;11.17;;
3767;SDS011;1899;49.966;7.106;2023-07-02T06:38:59;20.93;;;10.53;;
3767;SDS011;1899;49.966;7.106;2023-07-02T06:41:24;18.00;;;10.67;;
3767;SDS011;1899;49.966;7.106;2023-07-02T06:43:49;23.40;;;11.10;;
3767;SDS011;1899;49.966;7.106;2023-07-02T06:46:15;23.10;;;11.97;;
3767;SDS011;1899;49.966;7.106;2023-07-02T06:48:40;19.73;;;10.87;;
3767;SDS011;1899;49.966;7.106;2023-07-02T06:51:05;20.10;;;11.90;;
3767;SDS011;1899;49.966;7.106;2023-07-02T06:53:32;20.20;;;11.67;;
3767;SDS011;1899;49.966;7.106;2023-07-02T06:55:57;25.10;;;11.80;;
3767;SDS011;1899;49.966;7.106;2023-07-02T06:58:22;21.47;;;11.40;;
3767;SDS011;1899;49.966;7.106;2023-07-02T07:00:47;21.50;;;12.23;;
3767;SDS011;1899;49.966;7.106;2023-07-02T07:03:13;20.70;;;11.80;;
3767;SDS011;1899;49.966;7.106;2023-07-02T07:05:38;20.90;;;12.37;;
3767;SDS011;1899;49.966;7.106;2023-07-02T07:08:03;19.70;;;10.93;;
3767;SDS011;1899;49.966;7.106;2023-07-02T07:10:29;23.70;;;11.70;;
3767;SDS011;1899;49.966;7.106;2023-07-02T07:12:59;20.90;;;11.17;;
3767;SDS011;1899;49.966;7.106;2023-07-02T07:15:24;22.57;;;11.80;;
3767;SDS011;1899;49.966;7.106;2023-07-02T07:17:49;24.70;;;11.93;;
3767;SDS011;1899;49.966;7.106;2023-07-02T07:20:14;26.03;;;11.97;;
3767;SDS011;1899;49.966;7.106;2023-07-02T07:22:40;21.20;;;11.90;;
3767;SDS011;1899;49.966;7.106;2023-07-02T07:25:05;25.37;;;12.47;;
3767;SDS011;1899;49.966;7.106;2023-07-02T07:27:30;28.40;;;12.77;;
3767;SDS011;1899;49.966;7.106;2023-07-02T07:29:55;22.30;;;12.17;;
3767;SDS011;1899;49.966;7.106;2023-07-02T07:32:21;26.97;;;12.23;;
3767;SDS011;1899;49.966;7.106;2023-07-02T07:34:46;30.80;;;12.37;;
3767;SDS011;1899;49.966;7.106;2023-07-02T07:37:11;25.90;;;12.77;;
3767;SDS011;1899;49.966;7.106;2023-07-02T07:39:37;20.03;;;12.07;;
3767;SDS011;1899;49.966;7.106;2023-07-02T07:42:02;29.53;;;13.30;;
3767;SDS011;1899;49.966;7.106;2023-07-02T07:44:27;24.70;;;12.80;;
3767;SDS011;1899;49.966;7.106;2023-07-02T07:46:54;26.13;;;12.90;;
3767;SDS011;1899;49.966;7.106;2023-07-02T07:49:19;23.40;;;11.83;;
3767;SDS011;1899;49.966;7.106;2023-07-02T07:51:44;26.60;;;13.37;;
3767;SDS011;1899;49.966;7.106;2023-07-02T07:54:10;24.03;;;12.80;;
3767;SDS011;1899;49.966;7.106;2023-07-02T07:56:35;24.20;;;12.07;;
3767;SDS011;1899;49.966;7.106;2023-07-02T07:59:00;22.90;;;11.90;;
3767;SDS011;1899;49.966;7.106;2023-07-02T08:01:26;23.60;;;13.00;;
3767;SDS011;1899;49.966;7.106;2023-07-02T08:03:51;22.43;;;13.00;;
3767;SDS011;1899;49.966;7.106;2023-07-02T08:06:16;23.67;;;13.33;;
3767;SDS011;1899;49.966;7.106;2023-07-02T08:08:41;22.13;;;12.90;;
3767;SDS011;1899;49.966;7.106;2023-07-02T08:11:07;23.83;;;13.23;;
3767;SDS011;1899;49.966;7.106;2023-07-02T08:13:32;25.17;;;13.73;;
3767;SDS011;1899;49.966;7.106;2023-07-02T08:15:57;25.60;;;12.20;;
3767;SDS011;1899;49.966;7.106;2023-07-02T08:18:22;23.00;;;12.80;;
3767;SDS011;1899;49.966;7.106;2023-07-02T08:20:48;30.23;;;13.20;;
3767;SDS011;1899;49.966;7.106;2023-07-02T08:23:13;19.70;;;10.80;;
3767;SDS011;1899;49.966;7.106;2023-07-02T08:25:38;20.27;;;10.27;;
3767;SDS011;1899;49.966;7.106;2023-07-02T08:28:03;21.83;;;11.93;;
3767;SDS011;1899;49.966;7.106;2023-07-02T08:30:29;23.67;;;12.10;;
3767;SDS011;1899;49.966;7.106;2023-07-02T08:32:54;21.57;;;11.53;;
3767;SDS011;1899;49.966;7.106;2023-07-02T08:35:20;21.20;;;12.60;;
3767;SDS011;1899;49.966;7.106;2023-07-02T08:37:46;22.90;;;11.80;;
3767;SDS011;1899;49.966;7.106;2023-07-02T08:40:17;22.37;;;11.30;;
3767;SDS011;1899;49.966;7.106;2023-07-02T08:42:43;24.67;;;12.50;;
3767;SDS011;1899;49.966;7.106;2023-07-02T08:45:09;21.30;;;12.03;;
3767;SDS011;1899;49.966;7.106;2023-07-02T08:47:34;24.00;;;12.10;;
3767;SDS011;1899;49.966;7.106;2023-07-02T08:50:00;25.67;;;12.40;;
3767;SDS011;1899;49.966;7.106;2023-07-02T08:52:27;22.53;;;12.77;;
3767;SDS011;1899;49.966;7.106;2023-07-02T08:54:52;26.47;;;12.07;;
3767;SDS011;1899;49.966;7.106;2023-07-02T08:57:17;21.83;;;12.73;;
3767;SDS011;1899;49.966;7.106;2023-07-02T08:59:42;20.77;;;12.93;;
3767;SDS011;1899;49.966;7.106;2023-07-02T09:02:08;20.97;;;12.47;;
3767;SDS011;1899;49.966;7.106;2023-07-02T09:04:33;21.20;;;12.77;;
3767;SDS011;1899;49.966;7.106;2023-07-02T09:07:05;25.50;;;12.77;;
3767;SDS011;1899;49.966;7.106;2023-07-02T09:09:31;24.50;;;12.67;;
3767;SDS011;1899;49.966;7.106;2023-07-02T09:11:56;24.87;;;12.87;;
3767;SDS011;1899;49.966;7.106;2023-07-02T09:14:25;27.80;;;13.97;;
3767;SDS011;1899;49.966;7.106;2023-07-02T09:17:00;23.07;;;13.87;;
3767;SDS011;1899;49.966;7.106;2023-07-02T09:19:26;21.03;;;12.10;;
3767;SDS011;1899;49.966;7.106;2023-07-02T09:21:51;29.23;;;13.10;;
3767;SDS011;1899;49.966;7.106;2023-07-02T09:24:17;25.97;;;14.10;;
3767;SDS011;1899;49.966;7.106;2023-07-02T09:26:44;23.80;;;12.90;;
3767;SDS011;1899;49.966;7.106;2023-07-02T09:29:09;23.17;;;14.57;;
3767;SDS011;1899;49.966;7.106;2023-07-02T09:31:47;23.73;;;12.83;;
3767;SDS011;1899;49.966;7.106;2023-07-02T09:34:13;22.80;;;13.80;;
3767;SDS011;1899;49.966;7.106;2023-07-02T09:36:39;22.77;;;11.67;;
3767;SDS011;1899;49.966;7.106;2023-07-02T09:39:11;20.80;;;13.27;;
3767;SDS011;1899;49.966;7.106;2023-07-02T09:41:37;26.30;;;13.63;;
3767;SDS011;1899;49.966;7.106;2023-07-02T09:44:03;25.80;;;12.27;;
3767;SDS011;1899;49.966;7.106;2023-07-02T09:46:28;18.03;;;12.20;;
3767;SDS011;1899;49.966;7.106;2023-07-02T09:48:54;18.77;;;11.60;;
3767;SDS011;1899;49.966;7.106;2023-07-02T09:51:20;17.73;;;12.20;;
3767;SDS011;1899;49.966;7.106;2023-07-02T09:53:46;20.50;;;11.40;;
3767;SDS011;1899;49.966;7.106;2023-07-02T09:56:11;25.57;;;12.87;;
3767;SDS011;1899;49.966;7.106;2023-07-02T09:58:36;15.70;;;10.73;;
3767;SDS011;1899;49.966;7.106;2023-07-02T10:01:02;21.90;;;11.87;;
3767;SDS011;1899;49.966;7.106;2023-07-02T10:03:28;24.40;;;12.47;;
3767;SDS011;1899;49.966;7.106;2023-07-02T10:06:01;20.93;;;10.70;;
3767;SDS011;1899;49.966;7.106;2023-07-02T10:08:27;20.43;;;11.77;;
3767;SDS011;1899;49.966;7.106;2023-07-02T10:11:05;16.43;;;10.80;;
3767;SDS011;1899;49.966;7.106;2023-07-02T10:13:31;20.17;;;11.20;;
3767;SDS011;1899;49.966;7.106;2023-07-02T10:16:02;19.03;;;12.13;;
3767;SDS011;1899;49.966;7.106;2023-07-02T10:18:28;23.97;;;11.33;;
3767;SDS011;1899;49.966;7.106;2023-07-02T10:20:53;17.60;;;10.60;;
3767;SDS011;1899;49.966;7.106;2023-07-02T10:23:18;22.17;;;11.53;;
3767;SDS011;1899;49.966;7.106;2023-07-02T10:25:43;23.47;;;10.27;;
3767;SDS011;1899;49.966;7.106;2023-07-02T10:28:16;20.40;;;11.00;;
3767;SDS011;1899;49.966;7.106;2023-07-02T10:30:42;19.63;;;10.73;;
3767;SDS011;1899;49.966;7.106;2023-07-02T10:35:33;15.57;;;11.00;;
3767;SDS011;1899;49.966;7.106;2023-07-02T10:37:59;20.03;;;10.27;;
3767;SDS011;1899;49.966;7.106;2023-07-02T10:40:25;22.20;;;11.97;;
3767;SDS011;1899;49.966;7.106;2023-07-02T10:42:51;19.50;;;11.87;;
3767;SDS011;1899;49.966;7.106;2023-07-02T10:45:16;19.93;;;10.90;;
3767;SDS011;1899;49.966;7.106;2023-07-02T10:47:42;16.93;;;10.53;;
3767;SDS011;1899;49.966;7.106;2023-07-02T10:50:14;15.83;;;10.20;;
3767;SDS011;1899;49.966;7.106;2023-07-02T10:52:40;19.17;;;11.07;;
3767;SDS011;1899;49.966;7.106;2023-07-02T10:55:05;24.77;;;11.37;;
3767;SDS011;1899;49.966;7.106;2023-07-02T10:57:30;21.30;;;10.73;;
3767;SDS011;1899;49.966;7.106;2023-07-02T11:00:06;22.10;;;10.90;;
3767;SDS011;1899;49.966;7.106;2023-07-02T11:02:41;15.70;;;10.20;;
3767;SDS011;1899;49.966;7.106;2023-07-02T11:05:07;17.23;;;11.30;;
3767;SDS011;1899;49.966;7.106;2023-07-02T11:07:36;21.70;;;10.90;;
3767;SDS011;1899;49.966;7.106;2023-07-02T11:10:02;22.30;;;9.60;;
3767;SDS011;1899;49.966;7.106;2023-07-02T11:12:28;22.67;;;9.97;;
3767;SDS011;1899;49.966;7.106;2023-07-02T11:14:53;19.00;;;10.30;;
3767;SDS011;1899;49.966;7.106;2023-07-02T11:17:24;21.47;;;9.73;;
3767;SDS011;1899;49.966;7.106;2023-07-02T11:19:50;22.60;;;11.07;;
3767;SDS011;1899;49.966;7.106;2023-07-02T11:22:15;25.80;;;10.80;;
3767;SDS011;1899;49.966;7.106;2023-07-02T11:24:44;15.87;;;10.10;;
3767;SDS011;1899;49.966;7.106;2023-07-02T11:27:09;24.73;;;11.57;;
3767;SDS011;1899;49.966;7.106;2023-07-02T11:29:45;17.13;;;10.63;;
3767;SDS011;1899;49.966;7.106;2023-07-02T11:32:10;18.23;;;9.40;;
3767;SDS011;1899;49.966;7.106;2023-07-02T11:34:36;14.60;;;8.77;;
3767;SDS011;1899;49.966;7.106;2023-07-02T11:37:02;20.00;;;10.63;;
3767;SDS011;1899;49.966;7.106;2023-07-02T11:39:28;17.83;;;9.93;;
3767;SDS011;1899;49.966;7.106;2023-07-02T11:41:53;19.17;;;9.50;;
3767;SDS011;1899;49.966;7.106;2023-07-02T11:44:18;23.90;;;10.97;;
3767;SDS011;1899;49.966;7.106;2023-07-02T11:46:44;23.60;;;10.50;;
3767;SDS011;1899;49.966;7.106;2023-07-02T11:49:09;16.83;;;9.80;;
3767;SDS011;1899;49.966;7.106;2023-07-02T11:51:38;16.07;;;9.87;;
3767;SDS011;1899;49.966;7.106;2023-07-02T11:54:04;19.70;;;10.50;;
3767;SDS011;1899;49.966;7.106;2023-07-02T11:56:29;16.10;;;9.80;;
3767;SDS011;1899;49.966;7.106;2023-07-02T11:58:54;16.93;;;9.50;;
3767;SDS011;1899;49.966;7.106;2023-07-02T12:01:20;19.57;;;10.50;;
3767;SDS011;1899;49.966;7.106;2023-07-02T12:03:45;18.83;;;11.47;;
3767;SDS011;1899;49.966;7.106;2023-07-02T12:06:10;19.30;;;10.90;;
3767;SDS011;1899;49.966;7.106;2023-07-02T12:08:36;18.53;;;9.70;;
3767;SDS011;1899;49.966;7.106;2023-07-02T12:11:01;20.90;;;9.87;;
3767;SDS011;1899;49.966;7.106;2023-07-02T12:13:26;18.80;;;11.27;;
3767;SDS011;1899;49.966;7.106;2023-07-02T12:15:51;21.93;;;10.17;;
3767;SDS011;1899;49.966;7.106;2023-07-02T12:18:17;18.37;;;10.20;;
3767;SDS011;1899;49.966;7.106;2023-07-02T12:20:42;20.30;;;10.60;;
3767;SDS011;1899;49.966;7.106;2023-07-02T12:23:07;18.53;;;10.37;;
3767;SDS011;1899;49.966;7.106;2023-07-02T12:25:33;18.47;;;10.87;;
3767;SDS011;1899;49.966;7.106;2023-07-02T12:27:59;14.20;;;9.57;;
3767;SDS011;1899;49.966;7.106;2023-07-02T12:30:24;24.03;;;10.90;;
3767;SDS011;1899;49.966;7.106;2023-07-02T12:32:49;16.27;;;9.70;;
3767;SDS011;1899;49.966;7.106;2023-07-02T12:35:14;18.23;;;10.80;;
3767;SDS011;1899;49.966;7.106;2023-07-02T12:37:43;17.73;;;9.77;;
3767;SDS011;1899;49.966;7.106;2023-07-02T12:40:09;14.73;;;9.80;;
3767;SDS011;1899;49.966;7.106;2023-07-02T12:42:34;19.57;;;10.60;;
3767;SDS011;1899;49.966;7.106;2023-07-02T12:44:59;15.77;;;9.83;;
3767;SDS011;1899;49.966;7.106;2023-07-02T12:47:25;24.67;;;11.10;;
3767;SDS011;1899;49.966;7.106;2023-07-02T12:49:50;19.97;;;10.57;;
3767;SDS011;1899;49.966;7.106;2023-07-02T12:52:15;19.97;;;11.10;;
3767;SDS011;1899;49.966;7.106;2023-07-02T12:54:40;16.07;;;10.03;;
3767;SDS011;1899;49.966;7.106;2023-07-02T12:57:06;15.87;;;10.57;;
3767;SDS011;1899;49.966;7.106;2023-07-02T12:59:31;17.30;;;10.10;;
3767;SDS011;1899;49.966;7.106;2023-07-02T13:01:56;18.30;;;10.63;;
3767;SDS011;1899;49.966;7.106;2023-07-02T13:04:21;16.17;;;10.63;;
3767;SDS011;1899;49.966;7.106;2023-07-02T13:06:46;13.00;;;9.60;;
3767;SDS011;1899;49.966;7.106;2023-07-02T13:09:12;16.60;;;10.00;;
3767;SDS011;1899;49.966;7.106;2023-07-02T13:11:37;17.87;;;10.27;;
3767;SDS011;1899;49.966;7.106;2023-07-02T13:14:03;15.03;;;9.63;;
3767;SDS011;1899;49.966;7.106;2023-07-02T13:16:28;18.00;;;9.93;;
3767;SDS011;1899;49.966;7.106;2023-07-02T13:18:54;17.60;;;9.97;;
3767;SDS011;1899;49.966;7.106;2023-07-02T13:21:21;16.33;;;10.40;;
3767;SDS011;1899;49.966;7.106;2023-07-02T13:23:46;18.87;;;12.10;;
3767;SDS011;1899;49.966;7.106;2023-07-02T13:26:12;15.90;;;10.10;;
3767;SDS011;1899;49.966;7.106;2023-07-02T13:28:37;16.80;;;10.50;;
3767;SDS011;1899;49.966;7.106;2023-07-02T13:31:02;18.03;;;9.80;;
3767;SDS011;1899;49.966;7.106;2023-07-02T13:33:27;15.00;;;10.20;;
3767;SDS011;1899;49.966;7.106;2023-07-02T13:35:54;16.30;;;10.13;;
3767;SDS011;1899;49.966;7.106;2023-07-02T13:38:19;15.20;;;10.03;;
3767;SDS011;1899;49.966;7.106;2023-07-02T13:40:44;14.47;;;10.07;;
3767;SDS011;1899;49.966;7.106;2023-07-02T13:43:09;18.33;;;9.30;;
3767;SDS011;1899;49.966;7.106;2023-07-02T13:45:34;14.30;;;9.13;;
3767;SDS011;1899;49.966;7.106;2023-07-02T13:48:00;20.40;;;10.00;;
3767;SDS011;1899;49.966;7.106;2023-07-02T13:50:25;18.33;;;10.17;;
3767;SDS011;1899;49.966;7.106;2023-07-02T13:52:50;16.40;;;9.67;;
3767;SDS011;1899;49.966;7.106;2023-07-02T13:55:16;15.83;;;9.30;;
3767;SDS011;1899;49.966;7.106;2023-07-02T13:57:41;20.10;;;10.30;;
3767;SDS011;1899;49.966;7.106;2023-07-02T14:00:06;17.77;;;8.80;;
3767;SDS011;1899;49.966;7.106;2023-07-02T14:02:32;16.63;;;9.70;;
3767;SDS011;1899;49.966;7.106;2023-07-02T14:04:57;15.47;;;9.40;;
3767;SDS011;1899;49.966;7.106;2023-07-02T14:07:23;14.77;;;8.67;;
3767;SDS011;1899;49.966;7.106;2023-07-02T14:09:48;12.73;;;8.30;;
3767;SDS011;1899;49.966;7.106;2023-07-02T14:12:14;15.10;;;8.03;;
3767;SDS011;1899;49.966;7.106;2023-07-02T14:14:39;17.23;;;9.07;;
3767;SDS011;1899;49.966;7.106;2023-07-02T14:17:05;21.97;;;10.47;;
3767;SDS011;1899;49.966;7.106;2023-07-02T14:19:30;14.57;;;8.87;;
3767;SDS011;1899;49.966;7.106;2023-07-02T14:21:55;15.20;;;9.67;;
3767;SDS011;1899;49.966;7.106;2023-07-02T14:24:20;18.00;;;9.77;;
3767;SDS011;1899;49.966;7.106;2023-07-02T14:26:46;15.53;;;9.03;;
3767;SDS011;1899;49.966;7.106;2023-07-02T14:29:11;13.23;;;8.77;;
3767;SDS011;1899;49.966;7.106;2023-07-02T14:31:36;15.57;;;9.00;;
3767;SDS011;1899;49.966;7.106;2023-07-02T14:34:01;16.60;;;9.43;;
3767;SDS011;1899;49.966;7.106;2023-07-02T14:36:27;14.90;;;9.10;;
3767;SDS011;1899;49.966;7.106;2023-07-02T14:38:52;17.40;;;9.87;;
3767;SDS011;1899;49.966;7.106;2023-07-02T14:41:17;15.10;;;9.27;;
3767;SDS011;1899;49.966;7.106;2023-07-02T14:43:43;20.30;;;9.93;;
3767;SDS011;1899;49.966;7.106;2023-07-02T14:46:08;12.57;;;8.57;;
3767;SDS011;1899;49.966;7.106;2023-07-02T14:48:33;13.13;;;9.23;;
3767;SDS011;1899;49.966;7.106;2023-07-02T14:50:59;16.63;;;10.00;;
3767;SDS011;1899;49.966;7.106;2023-07-02T14:53:25;12.10;;;9.00;;